Terminal Aerodrome Forecast
Issued by NWS

Home | Current Version | Previous Version | Graphics & Text | Print | Product List | Glossary On
Versions: 1 2 3 4 5 6 7 8 9 10 11 12 13 14 15 16 17 18 19 20 21 22 23 24 25 26 27 28 29 30 31 32 33 34 35 36 37
000
FTUS43 KLOT 250500
TAFORD
TAF
KORD 250539Z 2506/2612 26013G22KT P6SM -SHSN OVC020
      TEMPO 2507/2510 2SM -SHSN BKN015
     FM251400 27011KT P6SM BKN025
     FM251800 27010KT P6SM BKN035
     FM260000 24006KT P6SM SCT035
     FM260600 19004KT P6SM SCT250=

USA.gov is the U.S. government's official web portal to all federal, state and local government web resources and services.